Time;durP1;ratioP1;P1;durP2;ratioP2;P2;SDS_P1;SDS_P2;PMS_P1;PMS_P2;Temp;Humidity;BMP_temperature;BMP_pressure;BME280_temperature;BME280_humidity;BME280_pressure;Samples;Min_cycle;Max_cycle;Signal;HPM_P1;HPM_P2
2022/06/23 00:01:28;;;;;;;15.90;8.00;;;24.40;81.70;;;;;;4991096;28;20472;-76
2022/06/23 00:03:58;;;;;;;14.63;7.90;;;24.40;81.40;;;;;;4994388;28;20454;-76
2022/06/23 00:06:41;;;;;;;14.50;8.00;;;24.40;81.80;;;;;;4994170;28;20488;-76
2022/06/23 00:09:35;;;;;;;9.47;8.57;;;24.40;81.80;;;;;;4979134;28;20448;-77
2022/06/23 00:12:19;;;;;;;18.73;9.30;;;24.40;81.60;;;;;;4993814;28;20503;-76
2022/06/23 00:14:51;;;;;;;10.30;8.43;;;24.40;81.50;;;;;;4993571;28;20491;-76
2022/06/23 00:17:24;;;;;;;13.27;9.43;;;24.40;81.60;;;;;;4992877;28;20479;-76
2022/06/23 00:19:55;;;;;;;11.67;7.93;;;24.40;81.40;;;;;;4993562;28;20845;-77
2022/06/23 00:22:27;;;;;;;16.87;8.43;;;24.40;81.40;;;;;;4993969;28;20854;-78
2022/06/23 00:24:58;;;;;;;10.93;8.57;;;24.30;81.50;;;;;;4993973;28;20502;-76
2022/06/23 00:27:30;;;;;;;10.93;7.60;;;24.30;81.40;;;;;;4993742;28;20498;-75
2022/06/23 00:30:04;;;;;;;19.27;8.20;;;24.20;81.60;;;;;;4992366;28;20515;-75
2022/06/23 00:32:33;;;;;;;20.57;8.40;;;24.20;81.80;;;;;;4987152;28;20499;-77
2022/06/23 00:35:06;;;;;;;13.93;9.20;;;24.20;81.80;;;;;;4991412;28;20581;-76
2022/06/23 00:37:35;;;;;;;12.47;8.47;;;24.20;81.70;;;;;;4990295;28;20577;-76
2022/06/23 00:40:08;;;;;;;13.37;8.27;;;24.10;81.90;;;;;;4989586;28;20464;-76
2022/06/23 00:42:40;;;;;;;14.10;7.83;;;24.10;82.10;;;;;;4993607;28;20534;-76
2022/06/23 00:45:20;;;;;;;18.93;8.57;;;24.10;82.00;;;;;;4993179;28;20441;-78
2022/06/23 00:47:52;;;;;;;12.63;7.57;;;24.10;82.00;;;;;;4992299;28;20997;-77
2022/06/23 00:50:29;;;;;;;10.97;8.00;;;24.10;82.00;;;;;;4992506;28;20837;-76
2022/06/23 00:53:02;;;;;;;11.33;7.87;;;24.10;82.10;;;;;;4991634;28;20448;-80
2022/06/23 00:55:42;;;;;;;9.03;7.43;;;24.10;81.90;;;;;;4992977;28;20443;-76
2022/06/23 00:58:32;;;;;;;14.13;8.57;;;24.10;82.00;;;;;;4994358;28;20502;-77
2022/06/23 01:01:12;;;;;;;18.00;8.53;;;24.10;81.70;;;;;;4992575;28;20474;-78
2022/06/23 01:03:44;;;;;;;15.23;9.57;;;24.10;81.80;;;;;;4992713;28;20476;-75
2022/06/23 01:06:20;;;;;;;10.90;8.30;;;24.00;81.90;;;;;;4993378;28;20443;-79
2022/06/23 01:08:54;;;;;;;14.23;8.07;;;24.00;81.80;;;;;;4988932;28;20454;-76
2022/06/23 01:11:28;;;;;;;10.17;7.80;;;24.00;81.70;;;;;;4995020;28;20518;-76
2022/06/23 01:14:06;;;;;;;13.73;9.97;;;24.00;81.80;;;;;;4995079;28;20504;-77
2022/06/23 01:16:43;;;;;;;11.87;8.70;;;24.00;81.80;;;;;;4993246;28;20519;-76
2022/06/23 01:19:46;;;;;;;12.93;8.80;;;23.90;82.00;;;;;;4993273;28;20983;-76
2022/06/23 01:22:22;;;;;;;19.33;8.60;;;23.90;82.20;;;;;;4984040;28;20451;-76
2022/06/23 01:25:01;;;;;;;17.53;10.40;;;23.80;82.20;;;;;;4993212;28;20504;-76
2022/06/23 01:27:58;;;;;;;12.53;8.90;;;23.70;82.50;;;;;;5000632;28;20501;-76
2022/06/23 01:30:30;;;;;;;10.40;7.63;;;23.60;82.00;;;;;;4993262;28;20461;-76
2022/06/23 01:33:07;;;;;;;11.00;9.87;;;23.50;81.80;;;;;;4996806;28;20455;-76
2022/06/23 01:35:40;;;;;;;9.07;7.90;;;23.50;82.00;;;;;;4996850;28;20464;-76
2022/06/23 01:38:18;;;;;;;11.83;9.60;;;23.50;82.10;;;;;;4997223;28;20528;-75
2022/06/23 01:40:53;;;;;;;11.93;8.67;;;23.50;81.70;;;;;;4997163;28;20550;-75
2022/06/23 01:43:29;;;;;;;13.60;9.50;;;23.40;81.40;;;;;;4997045;28;20473;-75
2022/06/23 01:46:05;;;;;;;9.63;8.27;;;23.30;81.70;;;;;;4994136;28;20515;-75
2022/06/23 01:48:53;;;;;;;17.60;9.17;;;23.20;81.80;;;;;;4977468;28;20517;-77
2022/06/23 01:51:25;;;;;;;17.23;9.33;;;23.10;82.30;;;;;;4986299;28;20456;-75
2022/06/23 01:53:55;;;;;;;18.03;9.20;;;23.10;82.50;;;;;;4996856;28;20457;-75
2022/06/23 01:56:32;;;;;;;12.10;7.93;;;23.20;82.40;;;;;;4997013;28;20460;-78
2022/06/23 01:59:18;;;;;;;13.30;9.40;;;23.10;82.70;;;;;;4996649;28;20475;-75
2022/06/23 02:01:53;;;;;;;14.70;8.30;;;23.20;82.50;;;;;;4996663;28;20430;-75
2022/06/23 02:04:34;;;;;;;17.80;10.20;;;23.10;82.70;;;;;;4993717;28;20562;-75
2022/06/23 02:07:07;;;;;;;18.60;10.00;;;22.90;83.30;;;;;;4997294;28;20434;-75
2022/06/23 02:09:42;;;;;;;18.00;8.80;;;22.90;83.50;;;;;;4996771;28;20484;-75
2022/06/23 02:12:20;;;;;;;15.33;9.10;;;22.90;83.50;;;;;;4996219;28;20476;-75
2022/06/23 02:14:56;;;;;;;27.47;10.20;;;23.00;83.40;;;;;;4996379;28;20831;-75
2022/06/23 02:17:34;;;;;;;20.47;10.20;;;23.00;83.60;;;;;;4998029;28;21045;-76
2022/06/23 02:20:16;;;;;;;16.73;7.90;;;23.00;83.50;;;;;;4996169;28;20508;-75
2022/06/23 02:22:47;;;;;;;12.87;7.90;;;22.90;83.60;;;;;;4993574;28;20449;-76
2022/06/23 02:25:21;;;;;;;13.50;8.07;;;22.90;83.80;;;;;;4995570;28;20797;-75
2022/06/23 02:27:53;;;;;;;13.87;8.10;;;22.90;83.90;;;;;;4995643;28;20458;-76
2022/06/23 02:30:29;;;;;;;12.67;7.53;;;22.90;83.70;;;;;;5005573;28;21002;-75
2022/06/23 02:33:06;;;;;;;12.40;6.97;;;23.00;83.40;;;;;;4995574;28;20536;-76
2022/06/23 02:35:43;;;;;;;13.07;6.73;;;23.10;83.20;;;;;;4994424;28;20523;-75
2022/06/23 02:38:18;;;;;;;14.57;7.80;;;23.20;82.90;;;;;;4995677;28;20465;-75
2022/06/23 02:40:50;;;;;;;12.80;7.20;;;23.20;82.80;;;;;;4996139;28;20453;-75
2022/06/23 02:43:32;;;;;;;11.93;6.67;;;23.20;82.70;;;;;;4995179;28;20434;-75
2022/06/23 02:46:27;;;;;;;10.73;6.90;;;23.30;82.50;;;;;;4995579;28;20478;-75
2022/06/23 02:49:28;;;;;;;11.27;6.80;;;23.20;82.60;;;;;;4995672;28;20584;-76
2022/06/23 02:52:17;;;;;;;17.23;6.63;;;23.00;82.80;;;;;;4995539;28;20863;-75
2022/06/23 02:55:19;;;;;;;19.50;6.93;;;23.00;83.10;;;;;;4995433;28;20540;-75
2022/06/23 02:57:58;;;;;;;14.90;7.33;;;22.80;83.80;;;;;;4976323;28;20868;-75
2022/06/23 03:00:33;;;;;;;12.30;7.37;;;22.80;83.50;;;;;;4978813;28;20989;-77
2022/06/23 03:03:09;;;;;;;12.80;5.60;;;22.80;83.30;;;;;;4990604;28;20860;-75
2022/06/23 03:05:45;;;;;;;15.63;6.23;;;22.80;82.90;;;;;;4995069;28;20540;-76
2022/06/23 03:08:24;;;;;;;15.23;6.83;;;22.80;82.90;;;;;;4992590;28;20456;-75
2022/06/23 03:10:57;;;;;;;9.27;6.43;;;22.90;82.50;;;;;;4994957;28;20573;-76
2022/06/23 03:13:35;;;;;;;8.77;7.07;;;22.90;82.30;;;;;;4994959;28;20429;-75
2022/06/23 03:16:13;;;;;;;12.30;7.07;;;22.90;82.10;;;;;;5026790;28;20980;-78
2022/06/23 03:18:54;;;;;;;10.17;6.90;;;22.90;82.00;;;;;;4995251;28;20571;-75
2022/06/23 03:21:26;;;;;;;13.83;6.20;;;22.90;81.90;;;;;;4995068;28;20426;-75
2022/06/23 03:24:02;;;;;;;10.83;7.07;;;22.90;81.90;;;;;;4994673;28;20449;-75
2022/06/23 03:26:38;;;;;;;7.63;5.60;;;22.90;81.90;;;;;;4996288;28;20446;-75
2022/06/23 03:29:17;;;;;;;12.13;6.00;;;23.00;81.80;;;;;;4977222;28;20450;-75
2022/06/23 03:31:51;;;;;;;10.30;7.00;;;23.00;81.80;;;;;;4993996;28;20912;-75
2022/06/23 03:34:25;;;;;;;13.00;7.50;;;23.00;81.90;;;;;;4994926;28;20434;-77
2022/06/23 03:36:59;;;;;;;9.83;6.67;;;22.90;82.10;;;;;;4995375;28;20483;-75
2022/06/23 03:42:24;;;;;;;10.13;6.47;;;22.80;82.50;;;;;;4976712;28;20453;-75
2022/06/23 03:44:58;;;;;;;10.50;5.33;;;22.80;82.60;;;;;;4999217;28;20448;-75
2022/06/23 03:47:38;;;;;;;9.47;7.17;;;22.70;82.60;;;;;;5007581;28;20978;-75
2022/06/23 03:50:20;;;;;;;9.50;5.83;;;22.80;82.40;;;;;;4995855;28;21002;-75
2022/06/23 03:52:53;;;;;;;11.10;6.20;;;22.80;82.20;;;;;;4994580;28;20556;-75
2022/06/23 03:55:25;;;;;;;10.33;5.97;;;22.80;81.90;;;;;;4993771;28;20529;-75
2022/06/23 03:57:57;;;;;;;11.83;6.23;;;22.70;81.60;;;;;;4993789;28;20477;-76
2022/06/23 04:00:35;;;;;;;8.93;5.83;;;22.60;81.70;;;;;;5000174;28;20986;-75
2022/06/23 04:03:21;;;;;;;8.63;6.17;;;22.60;81.70;;;;;;4993774;28;20448;-75
2022/06/23 04:06:22;;;;;;;9.00;6.47;;;22.60;81.50;;;;;;4994347;28;20477;-76
2022/06/23 04:08:58;;;;;;;12.37;5.57;;;22.50;81.80;;;;;;4992834;28;20453;-76
2022/06/23 04:11:45;;;;;;;7.00;4.60;;;22.60;81.70;;;;;;4993620;28;20480;-76
2022/06/23 04:14:23;;;;;;;12.50;5.37;;;22.60;81.40;;;;;;4993584;28;20935;-77
2022/06/23 04:16:55;;;;;;;8.40;5.63;;;22.50;81.40;;;;;;4993452;28;21059;-77
2022/06/23 04:19:29;;;;;;;6.40;5.20;;;22.60;81.30;;;;;;4989223;28;20496;-75
2022/06/23 04:22:05;;;;;;;9.63;5.00;;;22.70;80.70;;;;;;4991499;28;20446;-75
2022/06/23 04:24:37;;;;;;;9.70;4.37;;;22.70;80.50;;;;;;4992498;28;20506;-76
2022/06/23 04:27:13;;;;;;;9.93;4.90;;;22.70;80.30;;;;;;4994283;28;20921;-75
2022/06/23 04:29:42;;;;;;;8.77;5.03;;;22.80;80.20;;;;;;4993405;28;20519;-76
2022/06/23 04:32:15;;;;;;;9.03;5.07;;;22.70;80.20;;;;;;4991561;28;20477;-75
2022/06/23 04:34:53;;;;;;;6.47;4.77;;;22.70;80.60;;;;;;4993914;28;20986;-76
2022/06/23 04:37:29;;;;;;;7.07;4.70;;;22.80;80.30;;;;;;4993470;28;20847;-75
2022/06/23 04:40:09;;;;;;;7.77;5.50;;;22.80;80.00;;;;;;4983773;28;20546;-76
2022/06/23 04:42:46;;;;;;;7.37;5.00;;;22.80;80.50;;;;;;4991730;28;20460;-75
2022/06/23 04:45:34;;;;;;;6.90;4.57;;;22.80;80.50;;;;;;4989179;28;20506;-76
2022/06/23 04:48:09;;;;;;;8.97;4.80;;;22.90;80.40;;;;;;4992734;28;21559;-75
2022/06/23 04:50:43;;;;;;;6.30;4.90;;;23.00;80.40;;;;;;4988742;28;20481;-76
2022/06/23 04:53:25;;;;;;;7.50;4.33;;;23.00;80.00;;;;;;4979446;28;20447;-77
2022/06/23 04:56:09;;;;;;;7.20;4.63;;;23.10;79.80;;;;;;4989987;28;20465;-75
2022/06/23 04:58:45;;;;;;;8.80;4.03;;;23.20;79.60;;;;;;4993981;28;20479;-76
2022/06/23 05:01:16;;;;;;;5.63;3.87;;;23.20;79.90;;;;;;4981589;28;20838;-79
2022/06/23 05:03:50;;;;;;;6.70;4.30;;;23.30;79.50;;;;;;4988564;28;20489;-79
2022/06/23 05:06:32;;;;;;;4.53;3.43;;;23.40;79.20;;;;;;4994496;28;20561;-77
2022/06/23 05:09:05;;;;;;;8.20;4.07;;;23.30;79.60;;;;;;4991784;28;20470;-76
2022/06/23 05:11:40;;;;;;;4.80;3.30;;;23.40;79.20;;;;;;4995380;28;20877;-79
2022/06/23 05:14:17;;;;;;;7.10;4.17;;;23.50;78.90;;;;;;4989953;28;20562;-78
2022/06/23 05:16:50;;;;;;;5.23;3.50;;;23.50;78.90;;;;;;4990361;28;20560;-76
2022/06/23 05:19:23;;;;;;;7.63;3.37;;;23.60;78.70;;;;;;4984176;28;20837;-79
2022/06/23 05:21:54;;;;;;;5.40;2.97;;;23.80;78.00;;;;;;4984486;28;20861;-76
2022/06/23 05:24:26;;;;;;;4.57;2.77;;;24.10;77.60;;;;;;4989039;28;20509;-77
2022/06/23 05:27:00;;;;;;;5.93;2.63;;;24.30;77.20;;;;;;4988465;28;20463;-77
2022/06/23 05:29:35;;;;;;;7.77;3.43;;;24.50;76.30;;;;;;4992554;28;20527;-78
2022/06/23 05:32:12;;;;;;;5.00;3.00;;;24.70;76.00;;;;;;4994507;28;20494;-77
2022/06/23 05:34:48;;;;;;;7.10;3.50;;;24.80;75.40;;;;;;5004714;28;20453;-76
2022/06/23 05:37:23;;;;;;;4.07;3.10;;;24.40;75.80;;;;;;4987587;28;20981;-81
2022/06/23 05:40:00;;;;;;;8.83;3.80;;;24.30;76.70;;;;;;4984680;28;20580;-79
2022/06/23 05:42:31;;;;;;;9.17;4.07;;;24.00;77.10;;;;;;4991656;28;20489;-77
2022/06/23 05:45:05;;;;;;;6.50;3.37;;;23.60;78.30;;;;;;4987895;28;20458;-80
2022/06/23 05:47:34;;;;;;;7.17;3.50;;;23.50;78.50;;;;;;4990350;28;20466;-76
2022/06/23 05:50:06;;;;;;;6.00;3.57;;;23.30;79.50;;;;;;4985605;28;20824;-76
2022/06/23 05:52:43;;;;;;;10.10;5.33;;;23.40;79.30;;;;;;4988138;28;20546;-80
2022/06/23 05:55:19;;;;;;;14.63;7.20;;;23.50;78.90;;;;;;4992027;28;20578;-76
2022/06/23 05:57:56;;;;;;;16.93;15.43;;;23.60;78.60;;;;;;4994870;28;20462;-78
2022/06/23 06:00:35;;;;;;;10.13;7.37;;;23.60;78.40;;;;;;4997165;28;20479;-77
2022/06/23 06:03:14;;;;;;;7.83;5.70;;;23.60;78.30;;;;;;4995613;28;20826;-77
2022/06/23 06:05:48;;;;;;;24.20;22.20;;;23.60;77.50;;;;;;4991266;28;20508;-78
2022/06/23 06:08:21;;;;;;;9.50;8.03;;;23.60;77.90;;;;;;4986892;28;20463;-78
2022/06/23 06:10:50;;;;;;;13.07;11.60;;;23.90;78.00;;;;;;4994015;28;20469;-77
2022/06/23 06:13:23;;;;;;;5.60;4.20;;;24.00;76.80;;;;;;4988795;28;20486;-76
2022/06/23 06:15:55;;;;;;;7.37;5.50;;;24.10;76.90;;;;;;4991423;28;20516;-76
2022/06/23 06:18:28;;;;;;;5.77;5.00;;;24.20;76.50;;;;;;4988760;28;20503;-79
2022/06/23 06:20:59;;;;;;;10.63;9.07;;;24.30;76.30;;;;;;4992075;28;20474;-76
2022/06/23 06:23:35;;;;;;;5.30;3.40;;;24.50;75.90;;;;;;4996230;28;20497;-76
2022/06/23 06:26:06;;;;;;;8.40;4.70;;;24.70;75.40;;;;;;4990773;28;20988;-82
2022/06/23 06:28:36;;;;;;;12.50;11.20;;;24.80;74.90;;;;;;4991726;28;20446;-76
2022/06/23 06:31:17;;;;;;;9.57;6.27;;;24.70;74.60;;;;;;4994156;28;20536;-76
2022/06/23 06:33:53;;;;;;;9.07;6.30;;;24.70;74.90;;;;;;4993578;28;20444;-77
2022/06/23 06:36:34;;;;;;;6.43;5.40;;;24.70;74.80;;;;;;4993438;28;20488;-76
2022/06/23 06:39:09;;;;;;;13.90;9.10;;;24.60;74.80;;;;;;4992967;28;20444;-78
2022/06/23 06:41:39;;;;;;;7.13;6.20;;;24.60;74.70;;;;;;4992815;28;20460;-76
2022/06/23 06:44:10;;;;;;;10.07;6.83;;;24.70;74.80;;;;;;4986774;28;20535;-78
2022/06/23 06:46:41;;;;;;;6.77;4.50;;;24.70;74.70;;;;;;4990480;28;20495;-77
2022/06/23 06:49:15;;;;;;;8.00;6.27;;;24.80;74.70;;;;;;4986046;28;20556;-77
2022/06/23 06:51:44;;;;;;;11.40;8.20;;;24.70;75.00;;;;;;4988202;28;20529;-76
2022/06/23 06:54:17;;;;;;;11.63;9.67;;;24.40;74.70;;;;;;4984731;28;20535;-75
2022/06/23 06:56:49;;;;;;;17.40;14.17;;;24.20;76.00;;;;;;4991161;28;20592;-75
2022/06/23 06:59:24;;;;;;;14.37;12.90;;;24.00;75.90;;;;;;4989980;28;20460;-76
2022/06/23 07:01:57;;;;;;;12.20;11.00;;;24.00;75.90;;;;;;4993637;28;20495;-75
2022/06/23 07:04:30;;;;;;;14.10;11.57;;;24.00;76.70;;;;;;4990522;28;20492;-75
2022/06/23 07:07:05;;;;;;;15.23;12.17;;;24.10;76.50;;;;;;4993883;28;20487;-78
2022/06/23 07:09:39;;;;;;;9.67;8.63;;;24.10;76.50;;;;;;4988838;28;20520;-77
2022/06/23 07:12:13;;;;;;;18.03;14.33;;;24.10;76.60;;;;;;4992834;28;20927;-76
2022/06/23 07:14:49;;;;;;;15.03;13.63;;;24.20;76.50;;;;;;4992944;28;20525;-80
2022/06/23 07:17:22;;;;;;;14.87;13.13;;;24.30;75.70;;;;;;4991877;28;20509;-77
2022/06/23 07:19:55;;;;;;;21.30;12.40;;;24.40;75.70;;;;;;4988940;28;20484;-78
2022/06/23 07:22:28;;;;;;;13.83;11.40;;;24.50;75.60;;;;;;4989016;28;20492;-78
2022/06/23 07:25:02;;;;;;;12.70;11.33;;;24.60;75.40;;;;;;4992322;28;20486;-77
2022/06/23 07:27:37;;;;;;;11.23;8.90;;;24.70;74.90;;;;;;4991064;28;20460;-81
2022/06/23 07:30:12;;;;;;;12.57;11.27;;;24.80;74.70;;;;;;4990113;28;20469;-75
2022/06/23 07:32:48;;;;;;;10.20;9.10;;;24.90;75.20;;;;;;4992558;28;20873;-78
2022/06/23 07:35:27;;;;;;;8.33;7.33;;;24.90;75.00;;;;;;4992832;28;20457;-76
2022/06/23 07:38:02;;;;;;;11.40;8.53;;;24.90;74.70;;;;;;4992281;28;20491;-78
2022/06/23 07:40:37;;;;;;;11.37;10.30;;;25.00;74.50;;;;;;4997556;28;20632;-76
2022/06/23 07:43:12;;;;;;;15.13;9.53;;;25.00;74.30;;;;;;4993685;28;20496;-76
2022/06/23 07:45:48;;;;;;;9.83;8.60;;;25.00;74.90;;;;;;4992790;28;20462;-76
2022/06/23 07:48:17;;;;;;;9.93;8.07;;;24.90;73.90;;;;;;4986094;28;20539;-80
2022/06/23 07:50:45;;;;;;;11.87;9.43;;;24.90;73.80;;;;;;4993926;28;20467;-77
2022/06/23 07:53:18;;;;;;;7.47;6.30;;;24.90;73.90;;;;;;4993267;28;20516;-78
2022/06/23 07:55:48;;;;;;;11.67;9.30;;;25.00;74.10;;;;;;5021735;28;20476;-77
2022/06/23 07:58:22;;;;;;;14.90;11.23;;;25.00;73.60;;;;;;4984958;28;20460;-77
2022/06/23 08:00:56;;;;;;;13.20;10.77;;;25.10;73.40;;;;;;4994785;28;20476;-80
2022/06/23 08:03:33;;;;;;;9.63;8.73;;;25.10;73.70;;;;;;4985486;28;20467;-77
2022/06/23 08:06:07;;;;;;;10.13;7.80;;;25.20;74.20;;;;;;4998138;28;20962;-78
2022/06/23 08:08:38;;;;;;;9.87;8.07;;;25.20;73.80;;;;;;4986244;28;20995;-78
2022/06/23 08:14:20;;;;;;;8.80;6.33;;;25.40;73.60;;;;;;5022551;28;20541;-76
2022/06/23 08:16:49;;;;;;;8.40;6.00;;;25.50;73.50;;;;;;4995935;28;20861;-76
2022/06/23 08:19:29;;;;;;;7.93;6.47;;;25.50;73.00;;;;;;4998864;28;20504;-75
2022/06/23 08:22:03;;;;;;;8.77;4.87;;;25.60;72.70;;;;;;4996226;28;20497;-78
2022/06/23 08:24:33;;;;;;;7.77;6.80;;;25.70;72.80;;;;;;4995422;28;20463;-76
2022/06/23 08:27:05;;;;;;;9.00;6.20;;;25.80;72.10;;;;;;4997504;28;20443;-77
2022/06/23 08:29:38;;;;;;;9.00;5.93;;;25.90;72.10;;;;;;4992872;28;20470;-77
2022/06/23 08:32:08;;;;;;;5.67;5.00;;;25.90;72.10;;;;;;5018934;28;20458;-78
2022/06/23 08:34:41;;;;;;;9.37;6.87;;;25.90;72.10;;;;;;4987118;28;20451;-77
2022/06/23 08:37:16;;;;;;;5.03;4.50;;;26.00;72.40;;;;;;4991418;28;20466;-77
2022/06/23 08:39:54;;;;;;;6.10;5.50;;;26.10;71.90;;;;;;4990876;28;20447;-76
2022/06/23 08:42:27;;;;;;;8.90;6.23;;;26.10;72.00;;;;;;4993257;28;20510;-79
2022/06/23 08:45:02;;;;;;;5.43;4.87;;;26.20;71.10;;;;;;4991565;28;20460;-78
2022/06/23 08:47:44;;;;;;;6.67;5.03;;;26.20;71.30;;;;;;4990371;28;20459;-76
2022/06/23 08:50:18;;;;;;;8.90;5.43;;;26.30;71.00;;;;;;4986829;28;20480;-77
2022/06/23 08:52:57;;;;;;;6.60;4.50;;;26.10;70.60;;;;;;4990407;28;20451;-76
2022/06/23 08:55:30;;;;;;;5.20;4.40;;;26.10;71.40;;;;;;4988797;28;21019;-83
2022/06/23 08:58:25;;;;;;;7.30;4.90;;;26.20;70.90;;;;;;4991866;28;20443;-77
2022/06/23 09:00:59;;;;;;;4.90;3.40;;;26.20;69.90;;;;;;4993220;28;20479;-81
2022/06/23 09:03:41;;;;;;;5.00;3.53;;;26.30;69.80;;;;;;4988511;28;20965;-74
2022/06/23 09:06:21;;;;;;;6.13;3.07;;;26.30;70.20;;;;;;4990356;28;20490;-75
2022/06/23 09:08:58;;;;;;;4.80;2.50;;;26.30;68.60;;;;;;4991588;28;20452;-76
2022/06/23 09:11:34;;;;;;;4.80;3.33;;;26.20;68.80;;;;;;4992487;28;20443;-75
2022/06/23 09:14:38;;;;;;;8.10;2.93;;;26.30;69.50;;;;;;4985037;28;20515;-79
2022/06/23 09:17:28;;;;;;;4.00;2.93;;;26.40;68.20;;;;;;5001278;28;21070;-77
2022/06/23 09:20:12;;;;;;;6.97;3.70;;;26.40;68.70;;;;;;4980347;28;20472;-75
2022/06/23 09:23:02;;;;;;;4.77;3.20;;;26.50;69.30;;;;;;4983863;28;20559;-76
2022/06/23 09:25:37;;;;;;;8.23;2.77;;;26.60;69.60;;;;;;4977897;28;20479;-76
2022/06/23 09:28:29;;;;;;;4.27;3.07;;;26.70;69.90;;;;;;4980102;28;20547;-82
2022/06/23 09:31:13;;;;;;;6.17;3.60;;;26.70;69.40;;;;;;4990069;28;20461;-76
2022/06/23 09:33:50;;;;;;;4.80;3.10;;;26.80;70.60;;;;;;4988722;28;20777;-77
2022/06/23 09:37:06;;;;;;;5.00;3.03;;;26.80;69.50;;;;;;4992324;28;20511;-77
2022/06/23 09:40:16;;;;;;;4.00;2.70;;;26.90;68.50;;;;;;4949064;28;20494;-80
2022/06/23 09:43:13;;;;;;;6.27;3.10;;;26.90;68.90;;;;;;4989474;28;20489;-77
2022/06/23 09:46:04;;;;;;;4.57;2.47;;;27.00;69.30;;;;;;4990225;28;20478;-78
2022/06/23 09:48:51;;;;;;;4.67;2.37;;;27.00;68.70;;;;;;4990524;28;20832;-77
2022/06/23 09:51:46;;;;;;;6.67;2.50;;;27.10;69.70;;;;;;4993091;28;20456;-77
2022/06/23 09:55:00;;;;;;;2.97;2.40;;;27.10;70.00;;;;;;4981753;28;20468;-78
2022/06/23 09:57:58;;;;;;;4.13;2.27;;;27.10;68.80;;;;;;4997795;28;20508;-76
2022/06/23 10:00:37;;;;;;;3.53;2.70;;;27.10;68.80;;;;;;4989700;28;20996;-77
2022/06/23 10:03:19;;;;;;;5.57;2.73;;;27.10;68.20;;;;;;4995688;28;20525;-76
2022/06/23 10:06:32;;;;;;;4.20;2.60;;;27.20;67.80;;;;;;4990555;28;20546;-75
2022/06/23 10:09:09;;;;;;;6.10;2.70;;;27.30;67.40;;;;;;4982030;28;20464;-77
2022/06/23 10:11:54;;;;;;;5.00;2.90;;;27.30;67.90;;;;;;4960872;28;20477;-76
2022/06/23 10:14:51;;;;;;;7.03;2.20;;;27.30;67.40;;;;;;4988857;28;20473;-76
2022/06/23 10:17:39;;;;;;;4.23;2.13;;;27.30;65.90;;;;;;4990966;28;20522;-78
2022/06/23 10:20:22;;;;;;;7.90;2.93;;;27.30;66.70;;;;;;5006500;28;20466;-74
2022/06/23 10:23:05;;;;;;;4.87;2.00;;;27.30;65.30;;;;;;4992024;28;20830;-77
2022/06/23 10:25:53;;;;;;;5.17;2.33;;;27.30;66.10;;;;;;4995684;28;20443;-76
2022/06/23 10:28:39;;;;;;;5.93;2.17;;;27.30;64.60;;;;;;4995880;28;20479;-76
2022/06/23 10:31:22;;;;;;;5.57;2.40;;;27.40;64.40;;;;;;4996783;28;20454;-78
2022/06/23 10:34:15;;;;;;;7.27;2.40;;;27.40;65.00;;;;;;4993459;28;20947;-75
2022/06/23 10:37:07;;;;;;;3.37;2.07;;;27.30;65.10;;;;;;4990452;28;20454;-75
2022/06/23 10:39:56;;;;;;;4.80;2.33;;;27.40;64.60;;;;;;5017612;28;20455;-77
2022/06/23 10:42:49;;;;;;;3.63;2.00;;;27.40;64.60;;;;;;4990659;28;20530;-79
2022/06/23 10:45:26;;;;;;;2.30;1.97;;;27.50;65.60;;;;;;4984848;28;20464;-79
2022/06/23 10:48:10;;;;;;;3.30;2.07;;;27.50;66.30;;;;;;4988072;28;20518;-78
2022/06/23 10:50:51;;;;;;;6.03;2.50;;;27.60;65.90;;;;;;4988422;28;20458;-78
2022/06/23 10:53:51;;;;;;;6.87;2.40;;;27.60;65.60;;;;;;5000385;28;20468;-77
2022/06/23 10:56:40;;;;;;;5.47;2.50;;;27.60;64.00;;;;;;4988863;28;20449;-77
2022/06/23 10:59:39;;;;;;;4.17;2.13;;;27.70;63.80;;;;;;4988709;28;20542;-78
2022/06/23 11:02:32;;;;;;;4.13;2.20;;;27.70;64.60;;;;;;4999067;28;20486;-78
2022/06/23 11:05:31;;;;;;;2.50;1.97;;;27.70;64.00;;;;;;4990044;28;20540;-77
2022/06/23 11:08:23;;;;;;;3.10;2.00;;;27.70;65.10;;;;;;5003604;28;21400;-78
2022/06/23 11:11:05;;;;;;;4.47;2.50;;;27.70;65.30;;;;;;4990097;28;20965;-77
2022/06/23 11:13:40;;;;;;;3.70;2.27;;;27.70;63.90;;;;;;4994898;28;20856;-79
2022/06/23 11:16:20;;;;;;;5.57;2.00;;;27.80;63.80;;;;;;4991144;28;20544;-77
2022/06/23 11:19:00;;;;;;;4.60;1.67;;;27.80;64.00;;;;;;4993408;28;20459;-77
2022/06/23 11:21:49;;;;;;;7.23;2.43;;;27.80;63.90;;;;;;5023155;28;20521;-77
2022/06/23 11:24:29;;;;;;;6.20;2.30;;;27.80;64.90;;;;;;4994479;28;20473;-77
2022/06/23 11:27:06;;;;;;;5.33;1.70;;;27.80;62.80;;;;;;4988964;28;20455;-77
2022/06/23 11:30:02;;;;;;;5.20;1.67;;;27.90;64.40;;;;;;4986026;28;20461;-76
2022/06/23 11:32:49;;;;;;;2.97;1.53;;;27.90;63.50;;;;;;4998161;28;21001;-78
2022/06/23 11:35:39;;;;;;;3.63;1.67;;;28.00;62.30;;;;;;4978804;28;20545;-77
2022/06/23 11:38:34;;;;;;;3.97;1.80;;;28.00;62.80;;;;;;4985613;28;20507;-76
2022/06/23 11:41:24;;;;;;;7.00;2.23;;;27.90;63.20;;;;;;4992431;28;20452;-78
2022/06/23 11:44:05;;;;;;;4.43;1.47;;;27.90;63.40;;;;;;4993225;28;20993;-76
2022/06/23 11:46:35;;;;;;;3.53;2.23;;;27.90;63.20;;;;;;4987477;28;20509;-76
2022/06/23 11:49:25;;;;;;;6.40;2.07;;;28.00;62.00;;;;;;4994350;28;20548;-77
2022/06/23 11:52:11;;;;;;;2.70;1.60;;;28.10;62.30;;;;;;4994273;28;20490;-77
2022/06/23 11:54:55;;;;;;;8.87;2.17;;;28.20;62.20;;;;;;4980304;28;20808;-77
2022/06/23 11:57:43;;;;;;;5.23;2.30;;;28.20;61.50;;;;;;4994217;28;20511;-79
2022/06/23 12:00:14;;;;;;;7.13;2.27;;;28.30;61.40;;;;;;4986038;28;21019;-76
2022/06/23 12:03:27;;;;;;;9.17;2.00;;;28.30;61.10;;;;;;4984231;28;21081;-76
2022/06/23 12:06:05;;;;;;;3.10;1.90;;;28.50;60.30;;;;;;4982616;28;20464;-77
2022/06/23 12:08:46;;;;;;;2.30;1.90;;;28.50;62.40;;;;;;4974149;28;20476;-77
2022/06/23 12:11:14;;;;;;;4.80;2.00;;;28.50;62.40;;;;;;4983609;28;20886;-78
2022/06/23 12:13:44;;;;;;;9.23;2.37;;;28.60;61.50;;;;;;4984690;28;20492;-78
2022/06/23 12:16:12;;;;;;;4.43;2.57;;;28.90;60.70;;;;;;5017487;28;20481;-81
2022/06/23 12:18:47;;;;;;;2.80;1.77;;;29.00;60.90;;;;;;4990918;28;20450;-79
2022/06/23 12:21:26;;;;;;;5.80;2.20;;;29.10;60.70;;;;;;4988767;28;20535;-78
2022/06/23 12:24:01;;;;;;;5.13;2.00;;;29.20;59.80;;;;;;4990310;28;20473;-81
2022/06/23 12:26:32;;;;;;;3.53;2.03;;;29.40;59.40;;;;;;4977283;28;20508;-79
2022/06/23 12:29:10;;;;;;;6.10;2.40;;;29.60;58.20;;;;;;4984882;28;20481;-77
2022/06/23 12:31:45;;;;;;;4.23;1.63;;;29.80;56.70;;;;;;4987262;28;20474;-77
2022/06/23 12:34:23;;;;;;;6.73;2.23;;;30.00;57.90;;;;;;5021564;28;20460;-77
2022/06/23 12:37:10;;;;;;;4.93;2.23;;;30.00;57.90;;;;;;4995075;28;20441;-78
2022/06/23 12:39:50;;;;;;;3.97;1.90;;;30.10;57.90;;;;;;4977058;28;20430;-78
2022/06/23 12:42:24;;;;;;;5.17;1.90;;;30.20;58.10;;;;;;4977013;28;20434;-78
2022/06/23 12:45:13;;;;;;;5.30;2.03;;;30.20;58.10;;;;;;4976690;28;20455;-76
2022/06/23 12:47:59;;;;;;;4.17;2.17;;;30.30;58.00;;;;;;4976725;28;20492;-78
2022/06/23 12:50:45;;;;;;;5.50;2.00;;;30.40;57.30;;;;;;4986508;28;20436;-78
2022/06/23 12:53:38;;;;;;;6.40;2.50;;;30.40;58.00;;;;;;4994037;28;20487;-78
2022/06/23 12:56:20;;;;;;;4.50;2.23;;;30.50;58.40;;;;;;4992756;28;20450;-81
2022/06/23 12:58:52;;;;;;;3.53;1.80;;;30.40;58.70;;;;;;5007352;28;20512;-79
2022/06/23 13:01:33;;;;;;;9.00;2.63;;;30.50;58.70;;;;;;4982558;28;21343;-78
2022/06/23 13:04:06;;;;;;;4.33;2.33;;;30.60;58.60;;;;;;4991952;28;20562;-78
2022/06/23 13:06:52;;;;;;;5.07;2.40;;;30.60;58.50;;;;;;4992223;28;20444;-78
2022/06/23 13:09:31;;;;;;;6.20;2.17;;;30.70;58.40;;;;;;4990859;28;20456;-78
2022/06/23 13:12:26;;;;;;;5.57;2.30;;;30.70;58.40;;;;;;4991945;28;20450;-76
2022/06/23 13:15:00;;;;;;;4.57;1.90;;;30.80;56.70;;;;;;4991581;28;20929;-77
2022/06/23 13:17:38;;;;;;;3.30;1.40;;;30.90;56.70;;;;;;4991374;28;20476;-77
2022/06/23 13:20:16;;;;;;;7.30;2.70;;;30.90;57.70;;;;;;4988070;28;20453;-77
2022/06/23 13:22:48;;;;;;;5.50;3.10;;;30.80;58.20;;;;;;4991495;28;20534;-81
2022/06/23 13:25:24;;;;;;;3.77;1.67;;;30.80;58.20;;;;;;4978893;28;20497;-77
2022/06/23 13:27:55;;;;;;;8.60;2.10;;;30.80;58.30;;;;;;5000522;28;20456;-78
2022/06/23 13:30:46;;;;;;;5.37;2.17;;;30.80;58.70;;;;;;5003125;28;20445;-78
2022/06/23 13:33:29;;;;;;;6.10;2.13;;;30.80;58.80;;;;;;4997006;28;20470;-79
2022/06/23 13:36:04;;;;;;;6.70;2.10;;;30.80;58.80;;;;;;4985143;28;20527;-78
2022/06/23 13:38:41;;;;;;;5.00;2.17;;;30.90;58.90;;;;;;4994511;28;20595;-77
2022/06/23 13:41:16;;;;;;;4.97;2.03;;;30.90;59.00;;;;;;4990839;28;20902;-78
2022/06/23 13:43:50;;;;;;;4.67;1.90;;;30.90;59.10;;;;;;4994218;28;20955;-78
2022/06/23 13:46:23;;;;;;;4.60;2.13;;;30.90;59.20;;;;;;4993605;28;20456;-77
2022/06/23 13:49:09;;;;;;;8.17;2.13;;;30.90;59.20;;;;;;4997330;28;20500;-79